Time;durP1;ratioP1;P1;durP2;ratioP2;P2;SDS_P1;SDS_P2;PMS_P1;PMS_P2;Temp;Humidity;BMP_temperature;BMP_pressure;BME280_temperature;BME280_humidity;BME280_pressure;Samples;Min_cycle;Max_cycle;Signal;HPM_P1;HPM_P2
2023/02/04 00:00:44;;;;;;;19.60;8.60;;;;;;;-2.76;65.53;100733.89;107681;1251;109591;-59
2023/02/04 00:03:27;;;;;;;19.60;9.00;;;;;;;-2.78;65.64;100731.85;107656;1250;108482;-60
2023/02/04 00:05:56;;;;;;;31.90;10.50;;;;;;;-2.80;65.63;100731.19;107678;1251;99261;-59
2023/02/04 00:08:25;;;;;;;21.60;9.50;;;;;;;-2.81;66.02;100733.69;107660;1250;99178;-60
2023/02/04 00:10:53;;;;;;;18.80;9.90;;;;;;;-2.81;66.15;100729.48;107669;1249;114258;-61
2023/02/04 00:13:22;;;;;;;20.20;10.20;;;;;;;-2.80;66.24;100725.40;107682;1249;109680;-58
2023/02/04 00:15:50;;;;;;;15.30;9.00;;;;;;;-2.79;66.19;100722.91;107661;1253;108692;-61
2023/02/04 00:18:19;;;;;;;16.00;8.90;;;;;;;-2.77;66.23;100719.85;107695;1251;99263;-58
2023/02/04 00:20:49;;;;;;;16.70;9.80;;;;;;;-2.74;67.00;100715.55;107713;1251;99077;-58
2023/02/04 00:23:17;;;;;;;13.20;7.70;;;;;;;-2.70;66.90;100715.42;107665;1250;114297;-59
2023/02/04 00:25:45;;;;;;;17.30;9.20;;;;;;;-2.65;67.45;100711.74;107710;1250;109792;-59
2023/02/04 00:28:14;;;;;;;20.40;9.90;;;;;;;-2.60;67.43;100711.38;107690;1253;107791;-60
2023/02/04 00:30:42;;;;;;;21.10;9.20;;;;;;;-2.54;67.50;100710.46;107616;1250;99248;-59
2023/02/04 00:33:11;;;;;;;17.80;8.70;;;;;;;-2.47;67.93;100707.23;107686;1249;99701;-59
2023/02/04 00:35:39;;;;;;;13.40;8.10;;;;;;;-2.42;67.68;100706.52;107671;1251;112604;-59
2023/02/04 00:38:08;;;;;;;16.40;9.20;;;;;;;-2.40;67.69;100702.43;107680;1250;109373;-60
2023/02/04 00:40:38;;;;;;;17.10;8.40;;;;;;;-2.39;67.99;100699.22;107670;1250;109401;-59
2023/02/04 00:43:06;;;;;;;16.70;8.10;;;;;;;-2.37;68.20;100695.27;107638;1250;99042;-60
2023/02/04 00:45:34;;;;;;;14.10;7.40;;;;;;;-2.34;68.10;100685.54;107624;1254;99732;-60
2023/02/04 00:48:03;;;;;;;14.10;7.60;;;;;;;-2.35;68.27;100683.10;107695;1251;112996;-58
2023/02/04 00:50:33;;;;;;;16.80;7.50;;;;;;;-2.35;68.29;100682.05;107648;1251;110020;-59
2023/02/04 00:53:03;;;;;;;11.10;6.80;;;;;;;-2.33;68.44;100678.27;107691;1250;108279;-60
2023/02/04 00:55:32;;;;;;;12.00;6.90;;;;;;;-2.31;68.43;100674.52;107706;1249;99167;-59
2023/02/04 00:58:01;;;;;;;10.10;7.30;;;;;;;-2.29;68.30;100667.25;107748;1251;99306;-59
2023/02/04 01:00:29;;;;;;;11.70;8.10;;;;;;;-2.25;68.76;100662.56;107739;1253;113439;-60
2023/02/04 01:02:58;;;;;;;12.30;7.30;;;;;;;-2.29;68.47;100655.66;107701;1253;110503;-59
2023/02/04 01:05:27;;;;;;;15.30;7.70;;;;;;;-2.35;68.95;100653.25;107748;1251;108661;-59
2023/02/04 01:07:56;;;;;;;10.90;6.70;;;;;;;-2.41;68.50;100649.25;107644;1249;99167;-58
2023/02/04 01:10:26;;;;;;;15.90;7.70;;;;;;;-2.46;68.98;100649.06;107668;1250;99074;-60
2023/02/04 01:12:57;;;;;;;14.60;7.90;;;;;;;-2.50;69.63;100645.02;107773;1251;114108;-59
2023/02/04 01:15:27;;;;;;;13.00;7.00;;;;;;;-2.55;69.51;100646.58;107710;1253;109433;-59
2023/02/04 01:17:55;;;;;;;13.70;7.40;;;;;;;-2.59;69.78;100644.43;107659;1250;107018;-60
2023/02/04 01:20:24;;;;;;;15.80;8.30;;;;;;;-2.62;70.21;100643.70;107673;1251;99287;-60
2023/02/04 01:22:52;;;;;;;15.60;7.70;;;;;;;-2.65;70.16;100646.25;107706;1251;98913;-58
2023/02/04 01:25:20;;;;;;;16.50;8.30;;;;;;;-2.70;69.95;100643.96;107666;1249;112724;-60
2023/02/04 01:27:49;;;;;;;12.70;7.80;;;;;;;-2.73;70.65;100642.83;107681;1250;108899;-59
2023/02/04 01:30:17;;;;;;;12.00;7.50;;;;;;;-2.77;71.22;100641.20;107677;1253;108538;-59
2023/02/04 01:32:46;;;;;;;14.20;7.50;;;;;;;-2.79;71.69;100636.75;107647;1251;99202;-60
2023/02/04 01:35:15;;;;;;;19.00;9.40;;;;;;;-2.83;71.83;100636.50;107685;1249;99140;-59
2023/02/04 01:37:43;;;;;;;12.70;8.40;;;;;;;-2.83;72.13;100638.61;107634;1250;113631;-59
2023/02/04 01:40:12;;;;;;;17.70;8.90;;;;;;;-2.82;72.16;100633.86;107662;1250;110153;-59
2023/02/04 01:42:40;;;;;;;17.20;9.00;;;;;;;-2.81;72.28;100628.36;107651;1250;107273;-59
2023/02/04 01:45:10;;;;;;;15.80;9.00;;;;;;;-2.79;72.69;100628.14;107696;1250;99121;-59
2023/02/04 01:47:39;;;;;;;12.80;8.40;;;;;;;-2.77;72.39;100624.91;107689;1250;99140;-59
2023/02/04 01:50:11;;;;;;;17.30;7.60;;;;;;;-2.76;72.71;100616.79;107633;1250;112427;-62
2023/02/04 01:52:41;;;;;;;14.60;9.30;;;;;;;-2.73;73.08;100614.77;107622;1250;109783;-60
2023/02/04 01:55:14;;;;;;;13.60;8.50;;;;;;;-2.72;73.33;100611.73;107753;1249;108037;-59
2023/02/04 01:57:43;;;;;;;12.10;8.20;;;;;;;-2.70;73.15;100611.49;107645;1250;99271;-60
2023/02/04 02:00:16;;;;;;;19.80;7.80;;;;;;;-2.70;73.18;100616.39;107677;1250;99204;-61
2023/02/04 02:02:49;;;;;;;12.50;7.10;;;;;;;-2.69;72.91;100619.86;107680;1253;113341;-59
2023/02/04 02:05:23;;;;;;;18.00;8.70;;;;;;;-2.69;73.20;100616.34;107686;1250;109664;-61
2023/02/04 02:07:55;;;;;;;18.10;8.40;;;;;;;-2.72;73.11;100617.33;107630;1250;108220;-60
2023/02/04 02:10:24;;;;;;;17.10;9.00;;;;;;;-2.74;73.23;100615.30;107647;1250;99294;-59
2023/02/04 02:12:54;;;;;;;17.00;8.90;;;;;;;-2.75;73.41;100614.11;107747;1250;99182;-61
2023/02/04 02:15:23;;;;;;;15.50;9.00;;;;;;;-2.75;72.93;100612.89;107727;1250;113330;-59
2023/02/04 02:17:53;;;;;;;14.40;8.60;;;;;;;-2.72;72.93;100613.47;107676;1250;109038;-60
2023/02/04 02:20:24;;;;;;;14.00;8.10;;;;;;;-2.66;72.98;100614.66;107720;1249;108583;-60
2023/02/04 02:23:23;;;;;;;13.80;7.80;;;;;;;-2.62;72.96;100613.12;107660;1251;99228;-60
2023/02/04 02:25:52;;;;;;;12.20;7.80;;;;;;;-2.60;72.90;100601.45;107682;1250;99069;-60
2023/02/04 02:28:23;;;;;;;14.40;8.80;;;;;;;-2.58;72.69;100599.81;107750;1249;113294;-60
2023/02/04 02:30:52;;;;;;;19.50;8.80;;;;;;;-2.58;72.62;100599.99;107718;1249;109720;-59
2023/02/04 02:33:20;;;;;;;19.10;9.40;;;;;;;-2.59;72.88;100594.23;107656;1249;108590;-59
2023/02/04 02:35:50;;;;;;;15.90;9.20;;;;;;;-2.61;73.07;100588.52;107691;1249;99175;-59
2023/02/04 02:38:19;;;;;;;15.70;9.60;;;;;;;-2.64;72.99;100593.70;107734;1250;99847;-58
2023/02/04 02:40:48;;;;;;;15.70;9.40;;;;;;;-2.63;72.84;100598.26;107654;1250;112577;-60
2023/02/04 02:43:20;;;;;;;17.60;9.00;;;;;;;-2.64;73.12;100596.19;107707;1249;109865;-58
2023/02/04 02:45:50;;;;;;;18.70;10.90;;;;;;;-2.65;73.32;100593.95;107721;1249;107616;-60
2023/02/04 02:48:18;;;;;;;17.90;9.90;;;;;;;-2.68;73.78;100596.83;107685;1253;99177;-60
2023/02/04 02:50:47;;;;;;;16.30;10.40;;;;;;;-2.72;73.66;100592.75;107723;1250;99733;-58
2023/02/04 02:53:18;;;;;;;16.80;10.10;;;;;;;-2.75;73.83;100594.27;107693;1250;111645;-61
2023/02/04 02:55:47;;;;;;;16.10;10.80;;;;;;;-2.77;74.26;100593.64;107742;1249;109197;-60
2023/02/04 02:58:35;;;;;;;17.50;9.80;;;;;;;-2.77;74.05;100590.30;107712;1250;107670;-60
2023/02/04 03:01:07;;;;;;;19.60;10.80;;;;;;;-2.74;73.92;100594.42;107677;1249;99174;-60
2023/02/04 03:03:47;;;;;;;23.00;11.20;;;;;;;-2.70;73.83;100599.73;107778;1249;99176;-60
2023/02/04 03:06:21;;;;;;;22.90;12.10;;;;;;;-2.66;73.93;100600.65;107735;1250;113656;-59
2023/02/04 03:08:54;;;;;;;21.80;10.50;;;;;;;-2.62;73.65;100596.28;107798;1249;110123;-60
2023/02/04 03:11:25;;;;;;;20.30;11.10;;;;;;;-2.57;73.69;100598.38;107670;1249;108482;-61
2023/02/04 03:13:54;;;;;;;20.30;11.40;;;;;;;-2.51;73.50;100595.18;107718;1251;99244;-61
2023/02/04 03:16:22;;;;;;;17.30;11.10;;;;;;;-2.42;73.60;100593.61;107686;1249;99172;-61
2023/02/04 03:18:51;;;;;;;24.70;11.80;;;;;;;-2.35;73.38;100594.95;107755;1250;113179;-59
2023/02/04 03:21:19;;;;;;;21.40;12.10;;;;;;;-2.32;73.56;100595.70;107681;1250;109037;-60
2023/02/04 03:23:47;;;;;;;17.20;10.70;;;;;;;-2.30;73.60;100594.57;107646;1250;107731;-59
2023/02/04 03:26:16;;;;;;;23.10;11.70;;;;;;;-2.28;73.50;100596.92;107618;1249;99189;-59
2023/02/04 03:28:45;;;;;;;19.50;11.60;;;;;;;-2.23;73.40;100591.67;107629;1250;99301;-60
2023/02/04 03:31:15;;;;;;;19.90;11.40;;;;;;;-2.16;73.45;100599.30;107732;1250;112662;-59
2023/02/04 03:33:43;;;;;;;23.10;11.10;;;;;;;-2.09;73.39;100595.52;107653;1250;109044;-60
2023/02/04 03:36:12;;;;;;;19.20;11.00;;;;;;;-2.02;73.61;100594.22;107668;1249;109553;-59
2023/02/04 03:38:40;;;;;;;18.70;11.40;;;;;;;-1.94;73.57;100590.02;107623;1250;99184;-59
2023/02/04 03:41:08;;;;;;;21.80;11.60;;;;;;;-1.84;73.59;100589.64;107632;1250;99829;-60
2023/02/04 03:43:37;;;;;;;23.30;12.20;;;;;;;-1.75;73.48;100589.27;107644;1250;113286;-59
2023/02/04 03:46:05;;;;;;;22.50;11.70;;;;;;;-1.66;73.48;100591.20;107612;1251;109682;-59
2023/02/04 03:48:34;;;;;;;21.50;12.80;;;;;;;-1.58;73.36;100584.89;107610;1250;107317;-59
2023/02/04 03:51:03;;;;;;;20.30;11.80;;;;;;;-1.50;73.13;100585.63;107643;1250;99236;-60
2023/02/04 03:53:32;;;;;;;24.00;11.90;;;;;;;-1.46;72.82;100590.23;107649;1249;99083;-60
2023/02/04 03:56:00;;;;;;;18.70;11.60;;;;;;;-1.42;72.75;100584.77;107663;1250;114298;-59
2023/02/04 03:58:28;;;;;;;19.40;11.80;;;;;;;-1.38;72.73;100584.23;107683;1249;109361;-60
2023/02/04 04:00:57;;;;;;;21.40;12.90;;;;;;;-1.34;72.67;100584.25;107683;1251;109399;-60
2023/02/04 04:03:25;;;;;;;19.80;11.90;;;;;;;-1.36;72.15;100589.11;107780;1250;99065;-62
2023/02/04 04:05:54;;;;;;;19.00;11.90;;;;;;;-1.40;71.88;100587.48;107723;1251;99708;-60
2023/02/04 04:08:22;;;;;;;18.30;11.90;;;;;;;-1.40;72.15;100586.64;107722;1250;113540;-60
2023/02/04 04:10:51;;;;;;;22.10;12.90;;;;;;;-1.41;72.04;100585.24;107660;1250;109392;-59
2023/02/04 04:13:20;;;;;;;24.60;13.40;;;;;;;-1.42;71.79;100584.05;107610;1250;108459;-60
2023/02/04 04:15:48;;;;;;;21.10;13.60;;;;;;;-1.46;71.47;100585.09;107688;1250;99263;-60
2023/02/04 04:18:16;;;;;;;24.60;15.10;;;;;;;-1.47;71.49;100587.63;107670;1253;99307;-60
2023/02/04 04:20:45;;;;;;;28.90;14.90;;;;;;;-1.51;71.39;100588.69;107684;1250;113148;-59
2023/02/04 04:23:13;;;;;;;23.50;15.10;;;;;;;-1.57;71.38;100589.61;107697;1253;109581;-58
2023/02/04 04:25:41;;;;;;;35.00;17.10;;;;;;;-1.64;71.45;100589.54;107696;1250;108352;-59
2023/02/04 04:28:10;;;;;;;29.10;16.40;;;;;;;-1.76;71.54;100588.80;107651;1251;99159;-60
2023/02/04 04:30:39;;;;;;;26.90;16.10;;;;;;;-1.87;71.61;100591.66;107698;1250;99175;-59
2023/02/04 04:33:07;;;;;;;30.60;16.80;;;;;;;-1.96;71.92;100593.96;107670;1250;113477;-60
2023/02/04 04:35:36;;;;;;;33.90;19.00;;;;;;;-2.02;71.79;100599.98;107676;1250;109122;-58
2023/02/04 04:38:04;;;;;;;30.80;18.00;;;;;;;-2.06;72.10;100599.62;107691;1251;109064;-60
2023/02/04 04:40:32;;;;;;;28.00;16.20;;;;;;;-2.12;72.33;100600.73;107667;1250;99185;-59
2023/02/04 04:43:02;;;;;;;34.90;17.90;;;;;;;-2.17;72.43;100596.87;107758;1250;99298;-60
2023/02/04 04:45:30;;;;;;;25.80;16.10;;;;;;;-2.20;72.37;100601.55;107727;1250;112544;-60
2023/02/04 04:47:59;;;;;;;35.00;18.60;;;;;;;-2.22;72.25;100599.72;107673;1250;109889;-60
2023/02/04 04:50:27;;;;;;;32.70;17.60;;;;;;;-2.22;72.43;100599.19;107642;1249;108157;-60
2023/02/04 04:52:55;;;;;;;31.40;18.80;;;;;;;-2.24;72.93;100602.60;107679;1250;99820;-58
2023/02/04 04:55:24;;;;;;;32.80;19.20;;;;;;;-2.25;73.44;100591.58;107672;1249;99842;-59
2023/02/04 04:57:52;;;;;;;29.10;18.00;;;;;;;-2.26;73.58;100590.91;107652;1250;112746;-60
2023/02/04 05:00:22;;;;;;;29.30;17.10;;;;;;;-2.26;73.78;100593.19;107689;1249;110135;-60
2023/02/04 05:02:50;;;;;;;28.70;17.10;;;;;;;-2.25;73.93;100590.50;107664;1250;107551;-58
2023/02/04 05:05:18;;;;;;;28.50;16.80;;;;;;;-2.23;73.87;100586.20;107712;1250;99167;-60
2023/02/04 05:07:47;;;;;;;32.60;16.50;;;;;;;-2.21;74.24;100592.65;107640;1249;99243;-59
2023/02/04 05:10:16;;;;;;;31.10;16.60;;;;;;;-2.16;74.20;100596.33;107677;1249;113339;-59
2023/02/04 05:12:44;;;;;;;28.20;16.90;;;;;;;-2.13;74.35;100596.72;107721;1250;109932;-60
2023/02/04 05:15:13;;;;;;;24.30;15.10;;;;;;;-2.09;74.34;100602.38;107689;1250;108201;-59
2023/02/04 05:17:41;;;;;;;26.20;15.60;;;;;;;-2.08;74.37;100601.99;107659;1250;99868;-59
2023/02/04 05:20:10;;;;;;;31.00;15.90;;;;;;;-2.04;74.13;100603.39;107689;1250;99061;-59
2023/02/04 05:22:38;;;;;;;27.50;16.00;;;;;;;-1.99;74.73;100603.05;107692;1250;113740;-60
2023/02/04 05:25:07;;;;;;;36.70;18.40;;;;;;;-1.98;74.42;100604.79;107667;1250;109723;-60
2023/02/04 05:27:35;;;;;;;31.20;18.40;;;;;;;-1.96;74.38;100606.97;107715;1250;107081;-58
2023/02/04 05:30:04;;;;;;;32.00;16.90;;;;;;;-1.95;74.33;100609.56;107657;1251;99170;-60
2023/02/04 05:32:33;;;;;;;31.70;16.80;;;;;;;-1.96;74.68;100610.84;107736;1250;99732;-59
2023/02/04 05:35:01;;;;;;;27.20;16.30;;;;;;;-1.97;74.76;100615.08;107697;1250;112571;-61
2023/02/04 05:37:32;;;;;;;29.10;16.50;;;;;;;-1.97;74.84;100615.61;107693;1250;110001;-63
2023/02/04 05:40:01;;;;;;;25.40;15.30;;;;;;;-1.98;74.73;100617.05;107640;1249;107576;-59
2023/02/04 05:42:29;;;;;;;31.20;16.30;;;;;;;-1.98;74.82;100618.30;107682;1249;99179;-60
2023/02/04 05:44:58;;;;;;;30.80;17.40;;;;;;;-1.96;74.62;100620.87;107701;1250;99081;-61
2023/02/04 05:47:26;;;;;;;33.30;16.40;;;;;;;-1.96;75.09;100622.95;107650;1250;112780;-59
2023/02/04 05:49:54;;;;;;;31.50;17.20;;;;;;;-1.94;74.76;100622.00;107676;1253;110734;-59
2023/02/04 05:52:23;;;;;;;30.20;16.40;;;;;;;-1.93;74.90;100625.30;107679;1251;108320;-59
2023/02/04 05:54:51;;;;;;;31.50;16.10;;;;;;;-1.91;74.71;100629.77;107650;1251;99170;-59
2023/02/04 05:57:20;;;;;;;30.60;17.80;;;;;;;-1.88;74.98;100631.10;107657;1250;99180;-60
2023/02/04 05:59:48;;;;;;;32.90;16.80;;;;;;;-1.91;75.06;100629.26;107667;1250;113029;-59
2023/02/04 06:02:17;;;;;;;28.10;17.50;;;;;;;-1.93;75.07;100626.54;107647;1250;109040;-60
2023/02/04 06:04:45;;;;;;;34.10;17.90;;;;;;;-1.94;74.83;100629.37;107644;1250;107625;-59
2023/02/04 06:07:14;;;;;;;27.30;16.70;;;;;;;-1.93;74.90;100631.08;107659;1251;99183;-60
2023/02/04 06:09:43;;;;;;;56.80;25.80;;;;;;;-1.93;74.96;100629.71;107762;1249;99701;-59
2023/02/04 06:12:11;;;;;;;34.20;17.20;;;;;;;-1.91;74.88;100627.67;107625;1250;112754;-59
2023/02/04 06:14:40;;;;;;;32.10;17.80;;;;;;;-1.87;75.05;100631.91;107679;1251;109672;-58
2023/02/04 06:17:08;;;;;;;29.30;17.10;;;;;;;-1.84;75.05;100632.88;107608;1251;106875;-60
2023/02/04 06:19:37;;;;;;;28.30;15.90;;;;;;;-1.80;74.77;100632.36;107592;1249;99269;-60
2023/02/04 06:22:05;;;;;;;27.40;16.50;;;;;;;-1.74;74.75;100631.62;107651;1250;99427;-58
2023/02/04 06:24:34;;;;;;;28.80;15.80;;;;;;;-1.70;74.55;100634.09;107691;1249;113115;-60
2023/02/04 06:27:02;;;;;;;29.50;16.20;;;;;;;-1.67;74.47;100634.68;107663;1250;109259;-60
2023/02/04 06:29:31;;;;;;;27.60;16.50;;;;;;;-1.66;74.28;100637.42;107629;1249;109112;-59
2023/02/04 06:31:59;;;;;;;29.10;16.80;;;;;;;-1.60;74.34;100638.42;107632;1250;99175;-58
2023/02/04 06:34:27;;;;;;;35.40;17.10;;;;;;;-1.54;74.41;100642.59;107662;1250;99194;-59
2023/02/04 06:36:56;;;;;;;34.30;17.40;;;;;;;-1.53;73.96;100641.52;107671;1249;113275;-60
2023/02/04 06:39:24;;;;;;;36.10;17.40;;;;;;;-1.54;73.82;100647.18;107666;1250;110201;-59
2023/02/04 06:41:53;;;;;;;40.00;18.50;;;;;;;-1.53;73.23;100656.46;107566;1250;108742;-58
2023/02/04 06:44:21;;;;;;;29.50;16.80;;;;;;;-1.54;73.30;100662.65;107507;1250;99199;-59
2023/02/04 06:46:49;;;;;;;31.80;17.50;;;;;;;-1.51;73.63;100662.36;107613;1250;99092;-59
2023/02/04 06:49:18;;;;;;;33.80;19.60;;;;;;;-1.47;73.28;100664.48;107492;1250;113599;-59
2023/02/04 06:51:47;;;;;;;43.80;20.60;;;;;;;-1.43;73.27;100670.84;107559;1254;108989;-61
2023/02/04 06:54:16;;;;;;;38.10;20.40;;;;;;;-1.39;72.99;100671.70;107556;1251;108235;-60
2023/02/04 06:56:45;;;;;;;32.50;20.00;;;;;;;-1.32;73.04;100672.30;107539;1250;99710;-61
2023/02/04 06:59:14;;;;;;;38.20;20.40;;;;;;;-1.19;73.18;100675.34;107545;1250;99413;-59
2023/02/04 07:01:42;;;;;;;39.20;20.00;;;;;;;-1.06;72.91;100676.38;107512;1250;113709;-60
2023/02/04 07:04:11;;;;;;;44.30;21.80;;;;;;;-0.92;72.81;100674.91;107715;1250;109667;-60
2023/02/04 07:06:39;;;;;;;36.70;18.40;;;;;;;-0.78;72.95;100672.55;107501;1250;107689;-60
2023/02/04 07:09:07;;;;;;;29.50;16.70;;;;;;;-0.69;72.71;100670.41;107530;1251;99849;-59
2023/02/04 07:11:36;;;;;;;27.60;17.00;;;;;;;-0.66;72.41;100669.55;107542;1250;99050;-60
2023/02/04 07:14:04;;;;;;;31.60;16.00;;;;;;;-0.67;72.17;100668.38;107743;1250;112120;-60
2023/02/04 07:16:33;;;;;;;32.40;16.30;;;;;;;-0.65;72.06;100669.70;107514;1250;109279;-60
2023/02/04 07:19:02;;;;;;;32.40;17.00;;;;;;;-0.64;71.97;100670.86;107535;1251;108231;-60
2023/02/04 07:21:30;;;;;;;32.10;16.80;;;;;;;-0.55;71.89;100676.67;107590;1250;99292;-59
2023/02/04 07:23:59;;;;;;;26.80;16.40;;;;;;;-0.48;71.82;100676.38;107541;1251;99733;-59
2023/02/04 07:26:27;;;;;;;35.00;17.10;;;;;;;-0.45;71.49;100677.10;107511;1250;113523;-59
2023/02/04 07:28:55;;;;;;;33.70;16.00;;;;;;;-0.42;71.39;100675.06;107637;1250;109246;-59
2023/02/04 07:31:24;;;;;;;33.50;15.70;;;;;;;-0.41;71.49;100679.04;107662;1250;108179;-59
2023/02/04 07:33:53;;;;;;;22.70;13.40;;;;;;;-0.33;71.50;100678.68;107647;1251;99202;-61
2023/02/04 07:36:22;;;;;;;26.60;14.00;;;;;;;-0.24;71.34;100682.38;107677;1249;99198;-58
2023/02/04 07:38:50;;;;;;;35.30;13.60;;;;;;;-0.16;70.94;100681.11;107703;1250;113491;-61
2023/02/04 07:41:19;;;;;;;22.30;14.10;;;;;;;-0.05;70.64;100681.87;107668;1250;109671;-60
2023/02/04 07:43:48;;;;;;;21.00;12.50;;;;;;;0.07;70.56;100683.26;107961;1251;107621;-59
2023/02/04 07:46:16;;;;;;;24.20;13.70;;;;;;;0.20;70.53;100683.73;107937;1250;99182;-60
2023/02/04 07:48:44;;;;;;;22.20;13.10;;;;;;;0.34;70.33;100685.16;107933;1251;99537;-58
2023/02/04 07:51:13;;;;;;;22.90;12.90;;;;;;;0.50;70.25;100684.21;107742;1250;114314;-59
2023/02/04 07:53:42;;;;;;;23.50;13.80;;;;;;;0.62;69.60;100681.89;107650;1250;110007;-58
2023/02/04 07:56:10;;;;;;;19.20;11.50;;;;;;;0.73;69.22;100677.66;107659;1249;108363;-59
2023/02/04 07:58:39;;;;;;;20.90;12.30;;;;;;;0.78;68.33;100681.30;107640;1250;99195;-60
2023/02/04 08:01:07;;;;;;;25.80;13.50;;;;;;;0.75;67.86;100684.96;107666;1250;99745;-59
2023/02/04 08:03:35;;;;;;;20.30;12.30;;;;;;;0.76;68.07;100685.99;107648;1250;113732;-59
2023/02/04 08:06:05;;;;;;;21.40;12.90;;;;;;;0.77;67.94;100694.05;107633;1250;109701;-60
2023/02/04 08:08:33;;;;;;;27.10;13.00;;;;;;;0.79;68.16;100692.56;107669;1250;109406;-60
2023/02/04 08:11:02;;;;;;;25.30;13.90;;;;;;;0.84;68.06;100690.57;107638;1253;99252;-59
2023/02/04 08:13:30;;;;;;;25.80;14.70;;;;;;;0.90;68.30;100693.62;107704;1250;99270;-60
2023/02/04 08:15:58;;;;;;;30.10;14.00;;;;;;;0.91;68.28;100699.55;107676;1251;116339;-60
2023/02/04 08:18:27;;;;;;;29.60;15.40;;;;;;;0.91;68.13;100701.16;107763;1255;109254;-61
2023/02/04 08:20:56;;;;;;;25.50;13.60;;;;;;;0.91;68.31;100710.50;107581;1251;108228;-62
2023/02/04 08:23:24;;;;;;;23.70;15.10;;;;;;;0.92;68.44;100707.45;107593;1249;99178;-59
2023/02/04 08:25:52;;;;;;;25.00;15.30;;;;;;;0.98;68.71;100709.80;107662;1251;99739;-60
2023/02/04 08:28:21;;;;;;;27.20;15.70;;;;;;;1.07;68.77;100706.00;107693;1250;113539;-58
2023/02/04 08:30:49;;;;;;;31.70;18.30;;;;;;;1.17;68.73;100706.58;107661;1249;109170;-60
2023/02/04 08:33:18;;;;;;;37.20;20.40;;;;;;;1.22;68.55;100705.57;107627;1253;109416;-59
2023/02/04 08:35:47;;;;;;;34.20;18.70;;;;;;;1.28;68.76;100706.75;107734;1251;99194;-60
2023/02/04 08:38:15;;;;;;;35.00;19.40;;;;;;;1.37;68.99;100706.47;107623;1250;99061;-59
2023/02/04 08:40:44;;;;;;;41.70;19.30;;;;;;;1.56;68.89;100708.66;107600;1250;114333;-58
2023/02/04 08:43:13;;;;;;;33.80;19.30;;;;;;;1.76;68.75;100708.50;107724;1256;110888;-59
2023/02/04 08:45:42;;;;;;;31.40;18.50;;;;;;;1.92;68.51;100707.70;107687;1251;109810;-62
2023/02/04 08:48:10;;;;;;;36.10;19.40;;;;;;;2.00;68.14;100709.89;107630;1251;99189;-59
2023/02/04 08:50:39;;;;;;;38.20;21.60;;;;;;;2.13;68.01;100709.91;107651;1250;99298;-59
2023/02/04 08:53:08;;;;;;;36.40;18.50;;;;;;;2.30;67.97;100714.29;107655;1250;111194;-59
2023/02/04 08:55:36;;;;;;;27.20;16.80;;;;;;;2.52;67.94;100714.55;107662;1251;110000;-59
2023/02/04 08:58:05;;;;;;;38.80;17.70;;;;;;;2.69;67.83;100717.63;107623;1251;108148;-59
2023/02/04 09:00:33;;;;;;;28.70;17.60;;;;;;;2.88;67.14;100713.77;107664;1251;99275;-59
2023/02/04 09:03:02;;;;;;;32.80;17.20;;;;;;;2.95;66.50;100710.15;107637;1250;99066;-59
2023/02/04 09:05:31;;;;;;;31.50;15.80;;;;;;;2.93;65.69;100706.73;107691;1250;113522;-59
2023/02/04 09:07:59;;;;;;;35.20;16.50;;;;;;;2.86;65.53;100712.59;107609;1250;109167;-60
2023/02/04 09:10:27;;;;;;;35.50;17.80;;;;;;;2.86;65.83;100717.05;107630;1250;108500;-60
2023/02/04 09:12:56;;;;;;;28.70;16.60;;;;;;;2.88;65.63;100723.80;107631;1249;99751;-59
2023/02/04 09:15:24;;;;;;;27.80;16.60;;;;;;;2.88;65.14;100727.02;107639;1250;99154;-59
2023/02/04 09:17:59;;;;;;;29.20;16.40;;;;;;;2.97;65.49;100728.10;107637;1249;113662;-61
2023/02/04 09:20:28;;;;;;;28.80;16.30;;;;;;;3.02;64.72;100730.30;107652;1250;109615;-60
2023/02/04 09:22:57;;;;;;;24.50;15.20;;;;;;;3.14;65.07;100732.24;107642;1250;108614;-60
2023/02/04 09:25:25;;;;;;;27.20;16.30;;;;;;;3.24;64.48;100729.34;107609;1250;99179;-59
2023/02/04 09:27:53;;;;;;;33.80;16.30;;;;;;;3.25;64.39;100734.80;107670;1253;99061;-61
2023/02/04 09:30:22;;;;;;;25.60;16.00;;;;;;;3.25;63.45;100732.70;107699;1251;112778;-60
2023/02/04 09:32:50;;;;;;;37.60;15.70;;;;;;;3.20;62.84;100734.80;107624;1250;110327;-60
2023/02/04 09:35:19;;;;;;;30.80;16.30;;;;;;;3.15;62.97;100736.49;107622;1253;108188;-60
2023/02/04 09:37:47;;;;;;;31.80;19.60;;;;;;;3.17;63.16;100739.56;107637;1249;99167;-59
2023/02/04 09:40:17;;;;;;;29.40;16.00;;;;;;;3.17;63.01;100738.50;107682;1250;99194;-60
2023/02/04 09:42:51;;;;;;;24.20;15.70;;;;;;;3.19;62.61;100737.14;107648;1250;113299;-61
2023/02/04 09:45:25;;;;;;;29.70;15.50;;;;;;;3.19;62.17;100738.36;107696;1251;109002;-60
2023/02/04 09:47:56;;;;;;;31.00;15.60;;;;;;;3.18;61.73;100737.21;107601;1253;108601;-59
2023/02/04 09:50:27;;;;;;;36.20;16.40;;;;;;;3.20;61.93;100736.03;107629;1251;99101;-59
2023/02/04 09:52:58;;;;;;;30.30;17.30;;;;;;;3.29;62.40;100734.60;107591;1250;99294;-60
2023/02/04 09:55:33;;;;;;;27.90;17.10;;;;;;;3.35;61.58;100733.73;107723;1250;113294;-59
2023/02/04 09:58:04;;;;;;;31.40;16.80;;;;;;;3.36;61.49;100735.60;107640;1253;109238;-59
2023/02/04 10:00:33;;;;;;;27.90;15.20;;;;;;;3.40;61.21;100737.48;107643;1250;108078;-61
2023/02/04 10:03:02;;;;;;;21.60;14.50;;;;;;;3.44;61.02;100737.96;107670;1250;99295;-59
2023/02/04 10:05:36;;;;;;;27.20;14.10;;;;;;;3.56;61.21;100738.87;107633;1250;99802;-59
2023/02/04 10:08:04;;;;;;;35.00;14.40;;;;;;;3.69;60.71;100739.31;107705;1250;113537;-59
2023/02/04 10:10:33;;;;;;;25.30;13.60;;;;;;;3.81;60.32;100737.36;107725;1250;108891;-59
2023/02/04 10:13:02;;;;;;;23.80;13.90;;;;;;;3.93;59.67;100740.55;107602;1250;109103;-59
2023/02/04 10:15:32;;;;;;;25.10;12.60;;;;;;;4.13;59.68;100738.60;107662;1250;99211;-59
2023/02/04 10:18:06;;;;;;;21.50;14.00;;;;;;;4.40;59.75;100749.19;107703;1251;99159;-60
2023/02/04 10:20:36;;;;;;;26.40;12.40;;;;;;;4.72;58.90;100743.58;107689;1251;113460;-61
2023/02/04 10:23:09;;;;;;;22.60;12.80;;;;;;;4.94;58.15;100743.42;107616;1251;109981;-60
2023/02/04 10:25:39;;;;;;;19.10;11.70;;;;;;;4.99;56.69;100748.41;107615;1250;107747;-60
2023/02/04 10:28:08;;;;;;;23.40;12.10;;;;;;;5.15;57.33;100751.15;107582;1249;99192;-60
2023/02/04 10:30:40;;;;;;;17.50;11.80;;;;;;;5.30;57.08;100747.62;107748;1251;99188;-60
2023/02/04 10:33:25;;;;;;;24.20;13.20;;;;;;;5.53;57.36;100754.11;107655;1250;113284;-58
2023/02/04 10:35:55;;;;;;;20.00;12.00;;;;;;;5.83;56.39;100761.35;107592;1250;110075;-60
2023/02/04 10:38:24;;;;;;;19.10;11.20;;;;;;;6.11;55.55;100763.55;107640;1250;107760;-60
2023/02/04 10:41:01;;;;;;;21.40;11.90;;;;;;;6.38;54.27;100764.34;107651;1251;99182;-61
2023/02/04 10:43:29;;;;;;;28.50;12.40;;;;;;;6.59;54.39;100765.02;107652;1250;99073;-60
2023/02/04 10:46:01;;;;;;;18.40;11.30;;;;;;;6.93;53.44;100764.82;106834;1251;1058249;-60
2023/02/04 10:48:38;;;;;;;21.20;11.60;;;;;;;7.18;52.34;100764.27;107510;1251;109854;-60
2023/02/04 10:51:11;;;;;;;20.80;11.20;;;;;;;7.20;51.14;100769.13;107714;1251;107646;-61
2023/02/04 10:56:27;;;;;;;31.30;12.20;;;;;;;7.10;50.99;100773.94;107616;1250;99220;-60
2023/02/04 10:58:55;;;;;;;22.60;11.60;;;;;;;7.25;50.75;100773.01;107626;1250;113506;-61
2023/02/04 11:01:27;;;;;;;21.10;11.10;;;;;;;7.56;49.47;100771.62;107661;1253;110032;-60
2023/02/04 11:03:56;;;;;;;18.20;11.00;;;;;;;7.65;49.57;100776.30;107596;1251;107679;-59
2023/02/04 11:06:24;;;;;;;17.80;11.90;;;;;;;7.70;49.69;100775.88;107580;1250;99185;-60
2023/02/04 11:08:54;;;;;;;22.00;11.50;;;;;;;7.91;49.98;100782.89;107680;1255;99142;-59
2023/02/04 11:11:25;;;;;;;24.80;12.10;;;;;;;8.10;49.95;100790.33;107629;1250;112575;-58
2023/02/04 11:13:54;;;;;;;19.00;11.60;;;;;;;8.22;49.96;100788.88;107648;1251;110945;-58